sensor_id;sensor_type;location;lat;lon;timestamp;P1;durP1;ratioP1;P2;durP2;ratioP2
20669;SDS011;10494;50.868;4.180;2022-07-29T00:00:35;4.53;;;1.70;;
20669;SDS011;10494;50.868;4.180;2022-07-29T00:03:01;2.65;;;1.38;;
20669;SDS011;10494;50.868;4.180;2022-07-29T00:05:27;4.28;;;1.67;;
20669;SDS011;10494;50.868;4.180;2022-07-29T00:07:53;4.70;;;1.90;;
20669;SDS011;10494;50.868;4.180;2022-07-29T00:10:19;4.82;;;1.63;;
20669;SDS011;10494;50.868;4.180;2022-07-29T00:12:45;3.50;;;1.63;;
20669;SDS011;10494;50.868;4.180;2022-07-29T00:15:10;2.13;;;1.25;;
20669;SDS011;10494;50.868;4.180;2022-07-29T00:17:36;6.32;;;1.65;;
20669;SDS011;10494;50.868;4.180;2022-07-29T00:20:02;5.05;;;1.67;;
20669;SDS011;10494;50.868;4.180;2022-07-29T00:22:29;3.05;;;1.40;;
20669;SDS011;10494;50.868;4.180;2022-07-29T00:24:54;4.95;;;1.50;;
20669;SDS011;10494;50.868;4.180;2022-07-29T00:27:20;4.38;;;1.40;;
20669;SDS011;10494;50.868;4.180;2022-07-29T00:29:46;5.82;;;2.33;;
20669;SDS011;10494;50.868;4.180;2022-07-29T00:32:12;5.70;;;1.80;;
20669;SDS011;10494;50.868;4.180;2022-07-29T00:34:38;5.60;;;1.50;;
20669;SDS011;10494;50.868;4.180;2022-07-29T00:37:22;5.90;;;1.55;;
20669;SDS011;10494;50.868;4.180;2022-07-29T00:39:48;6.35;;;1.63;;
20669;SDS011;10494;50.868;4.180;2022-07-29T00:42:14;5.93;;;1.65;;
20669;SDS011;10494;50.868;4.180;2022-07-29T00:44:41;3.50;;;1.63;;
20669;SDS011;10494;50.868;4.180;2022-07-29T00:47:08;6.65;;;1.27;;
20669;SDS011;10494;50.868;4.180;2022-07-29T00:49:35;2.88;;;1.60;;
20669;SDS011;10494;50.868;4.180;2022-07-29T00:52:01;5.35;;;1.70;;
20669;SDS011;10494;50.868;4.180;2022-07-29T00:54:28;2.70;;;1.58;;
20669;SDS011;10494;50.868;4.180;2022-07-29T00:56:54;5.60;;;1.20;;
20669;SDS011;10494;50.868;4.180;2022-07-29T00:59:22;2.35;;;1.42;;
20669;SDS011;10494;50.868;4.180;2022-07-29T01:01:48;3.10;;;1.60;;
20669;SDS011;10494;50.868;4.180;2022-07-29T01:04:14;5.05;;;1.65;;
20669;SDS011;10494;50.868;4.180;2022-07-29T01:06:39;5.63;;;1.50;;
20669;SDS011;10494;50.868;4.180;2022-07-29T01:09:06;6.78;;;1.65;;
20669;SDS011;10494;50.868;4.180;2022-07-29T01:11:33;4.68;;;1.50;;
20669;SDS011;10494;50.868;4.180;2022-07-29T01:14:00;5.30;;;1.70;;
20669;SDS011;10494;50.868;4.180;2022-07-29T01:16:30;4.15;;;1.50;;
20669;SDS011;10494;50.868;4.180;2022-07-29T01:19:00;4.95;;;1.60;;
20669;SDS011;10494;50.868;4.180;2022-07-29T01:27:03;4.65;;;1.50;;
20669;SDS011;10494;50.868;4.180;2022-07-29T01:29:32;5.15;;;1.67;;
20669;SDS011;10494;50.868;4.180;2022-07-29T01:32:19;4.38;;;1.65;;
20669;SDS011;10494;50.868;4.180;2022-07-29T01:34:53;2.55;;;1.50;;
20669;SDS011;10494;50.868;4.180;2022-07-29T01:37:39;4.00;;;1.90;;
20669;SDS011;10494;50.868;4.180;2022-07-29T01:40:31;7.20;;;1.80;;
20669;SDS011;10494;50.868;4.180;2022-07-29T01:42:58;3.60;;;1.63;;
20669;SDS011;10494;50.868;4.180;2022-07-29T01:45:30;4.82;;;1.60;;
20669;SDS011;10494;50.868;4.180;2022-07-29T01:48:53;4.88;;;1.48;;
20669;SDS011;10494;50.868;4.180;2022-07-29T01:54:08;3.55;;;1.70;;
20669;SDS011;10494;50.868;4.180;2022-07-29T01:56:39;3.33;;;1.30;;
20669;SDS011;10494;50.868;4.180;2022-07-29T01:59:07;5.68;;;1.85;;
20669;SDS011;10494;50.868;4.180;2022-07-29T02:01:34;5.22;;;1.88;;
20669;SDS011;10494;50.868;4.180;2022-07-29T02:04:03;2.97;;;1.45;;
20669;SDS011;10494;50.868;4.180;2022-07-29T02:06:30;8.00;;;1.98;;
20669;SDS011;10494;50.868;4.180;2022-07-29T02:08:58;4.05;;;1.70;;
20669;SDS011;10494;50.868;4.180;2022-07-29T02:11:25;4.80;;;1.70;;
20669;SDS011;10494;50.868;4.180;2022-07-29T02:13:52;9.20;;;1.80;;
20669;SDS011;10494;50.868;4.180;2022-07-29T02:16:19;15.18;;;3.70;;
20669;SDS011;10494;50.868;4.180;2022-07-29T02:18:47;7.97;;;2.95;;
20669;SDS011;10494;50.868;4.180;2022-07-29T02:21:19;5.72;;;2.25;;
20669;SDS011;10494;50.868;4.180;2022-07-29T02:23:49;5.47;;;2.10;;
20669;SDS011;10494;50.868;4.180;2022-07-29T02:26:18;4.97;;;1.55;;
20669;SDS011;10494;50.868;4.180;2022-07-29T02:28:45;6.03;;;1.60;;
20669;SDS011;10494;50.868;4.180;2022-07-29T02:31:11;7.05;;;1.92;;
20669;SDS011;10494;50.868;4.180;2022-07-29T02:33:38;6.93;;;1.75;;
20669;SDS011;10494;50.868;4.180;2022-07-29T02:36:06;2.78;;;1.67;;
20669;SDS011;10494;50.868;4.180;2022-07-29T02:38:32;4.20;;;1.60;;
20669;SDS011;10494;50.868;4.180;2022-07-29T02:41:17;4.22;;;2.05;;
20669;SDS011;10494;50.868;4.180;2022-07-29T02:43:55;4.80;;;1.98;;
20669;SDS011;10494;50.868;4.180;2022-07-29T02:46:34;4.28;;;1.73;;
20669;SDS011;10494;50.868;4.180;2022-07-29T02:49:04;5.35;;;1.88;;
20669;SDS011;10494;50.868;4.180;2022-07-29T02:51:40;5.00;;;2.00;;
20669;SDS011;10494;50.868;4.180;2022-07-29T02:57:06;7.22;;;2.17;;
20669;SDS011;10494;50.868;4.180;2022-07-29T02:59:39;2.92;;;1.60;;
20669;SDS011;10494;50.868;4.180;2022-07-29T03:02:08;5.57;;;1.98;;
20669;SDS011;10494;50.868;4.180;2022-07-29T03:04:36;9.00;;;2.20;;
20669;SDS011;10494;50.868;4.180;2022-07-29T03:07:04;6.20;;;1.80;;
20669;SDS011;10494;50.868;4.180;2022-07-29T03:09:30;5.45;;;1.77;;
20669;SDS011;10494;50.868;4.180;2022-07-29T03:11:57;3.58;;;1.75;;
20669;SDS011;10494;50.868;4.180;2022-07-29T03:14:23;3.40;;;1.70;;
20669;SDS011;10494;50.868;4.180;2022-07-29T03:16:50;3.13;;;1.63;;
20669;SDS011;10494;50.868;4.180;2022-07-29T03:19:18;4.00;;;1.98;;
20669;SDS011;10494;50.868;4.180;2022-07-29T03:21:45;3.92;;;2.33;;
20669;SDS011;10494;50.868;4.180;2022-07-29T03:24:23;7.97;;;2.00;;
20669;SDS011;10494;50.868;4.180;2022-07-29T03:26:49;8.40;;;2.33;;
20669;SDS011;10494;50.868;4.180;2022-07-29T03:29:15;5.97;;;2.20;;
20669;SDS011;10494;50.868;4.180;2022-07-29T03:31:41;7.53;;;2.58;;
20669;SDS011;10494;50.868;4.180;2022-07-29T03:34:06;6.35;;;2.20;;
20669;SDS011;10494;50.868;4.180;2022-07-29T03:36:32;6.63;;;2.75;;
20669;SDS011;10494;50.868;4.180;2022-07-29T03:38:58;6.30;;;2.40;;
20669;SDS011;10494;50.868;4.180;2022-07-29T03:41:24;5.57;;;2.17;;
20669;SDS011;10494;50.868;4.180;2022-07-29T03:43:50;6.47;;;2.30;;
20669;SDS011;10494;50.868;4.180;2022-07-29T03:46:17;4.70;;;2.33;;
20669;SDS011;10494;50.868;4.180;2022-07-29T03:48:47;7.78;;;2.25;;
20669;SDS011;10494;50.868;4.180;2022-07-29T03:51:15;5.53;;;2.65;;
20669;SDS011;10494;50.868;4.180;2022-07-29T03:53:41;4.07;;;2.30;;
20669;SDS011;10494;50.868;4.180;2022-07-29T03:56:07;7.18;;;3.15;;
20669;SDS011;10494;50.868;4.180;2022-07-29T03:58:34;4.60;;;1.92;;
20669;SDS011;10494;50.868;4.180;2022-07-29T04:01:01;7.93;;;2.30;;
20669;SDS011;10494;50.868;4.180;2022-07-29T04:03:27;5.35;;;1.98;;
20669;SDS011;10494;50.868;4.180;2022-07-29T04:05:59;4.57;;;2.20;;
20669;SDS011;10494;50.868;4.180;2022-07-29T04:08:31;7.53;;;2.30;;
20669;SDS011;10494;50.868;4.180;2022-07-29T04:10:58;4.32;;;2.38;;
20669;SDS011;10494;50.868;4.180;2022-07-29T04:13:24;5.80;;;2.28;;
20669;SDS011;10494;50.868;4.180;2022-07-29T04:15:49;3.88;;;2.20;;
20669;SDS011;10494;50.868;4.180;2022-07-29T04:18:15;4.03;;;1.98;;
20669;SDS011;10494;50.868;4.180;2022-07-29T04:20:41;4.57;;;2.42;;
20669;SDS011;10494;50.868;4.180;2022-07-29T04:23:07;7.78;;;2.13;;
20669;SDS011;10494;50.868;4.180;2022-07-29T04:25:32;2.58;;;2.10;;
20669;SDS011;10494;50.868;4.180;2022-07-29T04:27:58;4.60;;;2.05;;
20669;SDS011;10494;50.868;4.180;2022-07-29T04:30:27;5.43;;;2.42;;
20669;SDS011;10494;50.868;4.180;2022-07-29T04:32:53;4.47;;;2.50;;
20669;SDS011;10494;50.868;4.180;2022-07-29T04:35:19;6.15;;;2.17;;
20669;SDS011;10494;50.868;4.180;2022-07-29T04:37:45;5.72;;;2.50;;
20669;SDS011;10494;50.868;4.180;2022-07-29T04:40:10;6.82;;;2.72;;
20669;SDS011;10494;50.868;4.180;2022-07-29T04:42:36;7.90;;;2.85;;
20669;SDS011;10494;50.868;4.180;2022-07-29T04:45:02;5.20;;;2.60;;
20669;SDS011;10494;50.868;4.180;2022-07-29T04:47:28;4.78;;;2.50;;
20669;SDS011;10494;50.868;4.180;2022-07-29T04:49:54;8.77;;;2.78;;
20669;SDS011;10494;50.868;4.180;2022-07-29T04:52:21;5.47;;;2.53;;
20669;SDS011;10494;50.868;4.180;2022-07-29T04:54:47;7.38;;;2.85;;
20669;SDS011;10494;50.868;4.180;2022-07-29T04:57:13;5.97;;;2.55;;
20669;SDS011;10494;50.868;4.180;2022-07-29T04:59:38;5.97;;;2.80;;
20669;SDS011;10494;50.868;4.180;2022-07-29T05:02:04;4.05;;;2.50;;
20669;SDS011;10494;50.868;4.180;2022-07-29T05:04:30;4.90;;;2.47;;
20669;SDS011;10494;50.868;4.180;2022-07-29T05:06:55;4.30;;;2.55;;
20669;SDS011;10494;50.868;4.180;2022-07-29T05:09:21;5.00;;;2.80;;
20669;SDS011;10494;50.868;4.180;2022-07-29T05:11:46;4.47;;;2.60;;
20669;SDS011;10494;50.868;4.180;2022-07-29T05:14:12;4.35;;;2.67;;
20669;SDS011;10494;50.868;4.180;2022-07-29T05:16:38;6.32;;;2.70;;
20669;SDS011;10494;50.868;4.180;2022-07-29T05:19:07;4.28;;;2.30;;
20669;SDS011;10494;50.868;4.180;2022-07-29T05:21:32;5.20;;;2.60;;
20669;SDS011;10494;50.868;4.180;2022-07-29T05:23:58;9.02;;;2.80;;
20669;SDS011;10494;50.868;4.180;2022-07-29T05:26:23;4.75;;;2.50;;
20669;SDS011;10494;50.868;4.180;2022-07-29T05:28:49;8.13;;;2.63;;
20669;SDS011;10494;50.868;4.180;2022-07-29T05:31:14;4.07;;;2.10;;
20669;SDS011;10494;50.868;4.180;2022-07-29T05:33:40;4.10;;;2.50;;
20669;SDS011;10494;50.868;4.180;2022-07-29T05:36:06;5.75;;;2.75;;
20669;SDS011;10494;50.868;4.180;2022-07-29T05:38:33;6.35;;;2.83;;
20669;SDS011;10494;50.868;4.180;2022-07-29T05:41:02;8.90;;;3.00;;
20669;SDS011;10494;50.868;4.180;2022-07-29T05:43:28;7.35;;;3.08;;
20669;SDS011;10494;50.868;4.180;2022-07-29T05:45:54;10.77;;;2.95;;
20669;SDS011;10494;50.868;4.180;2022-07-29T05:48:20;5.28;;;2.85;;
20669;SDS011;10494;50.868;4.180;2022-07-29T05:50:45;4.75;;;2.83;;
20669;SDS011;10494;50.868;4.180;2022-07-29T05:53:11;6.20;;;2.90;;
20669;SDS011;10494;50.868;4.180;2022-07-29T05:55:37;5.43;;;2.83;;
20669;SDS011;10494;50.868;4.180;2022-07-29T05:58:02;6.25;;;2.78;;
20669;SDS011;10494;50.868;4.180;2022-07-29T06:00:28;6.85;;;2.50;;
20669;SDS011;10494;50.868;4.180;2022-07-29T06:02:54;5.72;;;3.00;;
20669;SDS011;10494;50.868;4.180;2022-07-29T06:05:19;5.75;;;3.38;;
20669;SDS011;10494;50.868;4.180;2022-07-29T06:07:45;4.55;;;2.80;;
20669;SDS011;10494;50.868;4.180;2022-07-29T06:10:10;8.23;;;3.20;;
20669;SDS011;10494;50.868;4.180;2022-07-29T06:12:36;8.70;;;3.22;;
20669;SDS011;10494;50.868;4.180;2022-07-29T06:15:02;8.02;;;3.03;;
20669;SDS011;10494;50.868;4.180;2022-07-29T06:17:28;5.97;;;2.58;;
20669;SDS011;10494;50.868;4.180;2022-07-29T06:19:54;5.68;;;3.10;;
20669;SDS011;10494;50.868;4.180;2022-07-29T06:22:19;5.00;;;2.88;;
20669;SDS011;10494;50.868;4.180;2022-07-29T06:24:45;7.13;;;3.50;;
20669;SDS011;10494;50.868;4.180;2022-07-29T06:27:10;7.70;;;2.90;;
20669;SDS011;10494;50.868;4.180;2022-07-29T06:29:36;6.18;;;3.40;;
20669;SDS011;10494;50.868;4.180;2022-07-29T06:32:03;6.28;;;2.92;;
20669;SDS011;10494;50.868;4.180;2022-07-29T06:34:28;7.57;;;3.58;;
20669;SDS011;10494;50.868;4.180;2022-07-29T06:36:54;5.60;;;4.05;;
20669;SDS011;10494;50.868;4.180;2022-07-29T06:39:20;8.35;;;3.70;;
20669;SDS011;10494;50.868;4.180;2022-07-29T06:41:46;7.68;;;3.42;;
20669;SDS011;10494;50.868;4.180;2022-07-29T06:44:13;10.40;;;4.10;;
20669;SDS011;10494;50.868;4.180;2022-07-29T06:46:39;10.00;;;3.75;;
20669;SDS011;10494;50.868;4.180;2022-07-29T06:49:05;12.00;;;3.28;;
20669;SDS011;10494;50.868;4.180;2022-07-29T06:51:31;8.18;;;3.45;;
20669;SDS011;10494;50.868;4.180;2022-07-29T06:53:56;5.35;;;3.33;;
20669;SDS011;10494;50.868;4.180;2022-07-29T06:56:22;6.97;;;3.17;;
20669;SDS011;10494;50.868;4.180;2022-07-29T06:58:48;5.93;;;3.10;;
20669;SDS011;10494;50.868;4.180;2022-07-29T07:01:13;7.90;;;3.50;;
20669;SDS011;10494;50.868;4.180;2022-07-29T07:03:39;8.88;;;3.05;;
20669;SDS011;10494;50.868;4.180;2022-07-29T07:06:04;6.05;;;3.08;;
20669;SDS011;10494;50.868;4.180;2022-07-29T07:08:30;6.90;;;3.22;;
20669;SDS011;10494;50.868;4.180;2022-07-29T07:10:56;8.45;;;3.30;;
20669;SDS011;10494;50.868;4.180;2022-07-29T07:13:22;7.40;;;3.85;;
20669;SDS011;10494;50.868;4.180;2022-07-29T07:15:48;7.88;;;3.05;;
20669;SDS011;10494;50.868;4.180;2022-07-29T07:18:14;7.53;;;3.03;;
20669;SDS011;10494;50.868;4.180;2022-07-29T07:20:40;6.65;;;3.58;;
20669;SDS011;10494;50.868;4.180;2022-07-29T07:23:07;8.90;;;3.15;;
20669;SDS011;10494;50.868;4.180;2022-07-29T07:25:32;11.45;;;3.30;;
20669;SDS011;10494;50.868;4.180;2022-07-29T07:27:58;7.80;;;3.63;;
20669;SDS011;10494;50.868;4.180;2022-07-29T07:30:24;5.57;;;3.28;;
20669;SDS011;10494;50.868;4.180;2022-07-29T07:32:50;9.30;;;2.95;;
20669;SDS011;10494;50.868;4.180;2022-07-29T07:35:15;4.75;;;3.10;;
20669;SDS011;10494;50.868;4.180;2022-07-29T07:37:41;7.97;;;3.38;;
20669;SDS011;10494;50.868;4.180;2022-07-29T07:40:08;6.75;;;2.95;;
20669;SDS011;10494;50.868;4.180;2022-07-29T07:42:36;6.55;;;3.20;;
20669;SDS011;10494;50.868;4.180;2022-07-29T07:45:02;3.85;;;2.80;;
20669;SDS011;10494;50.868;4.180;2022-07-29T07:47:29;5.50;;;3.00;;
20669;SDS011;10494;50.868;4.180;2022-07-29T07:49:55;8.75;;;3.05;;
20669;SDS011;10494;50.868;4.180;2022-07-29T07:52:21;5.68;;;2.97;;
20669;SDS011;10494;50.868;4.180;2022-07-29T07:54:47;5.72;;;2.95;;
20669;SDS011;10494;50.868;4.180;2022-07-29T07:57:13;7.85;;;2.45;;
20669;SDS011;10494;50.868;4.180;2022-07-29T07:59:39;9.60;;;2.70;;
20669;SDS011;10494;50.868;4.180;2022-07-29T08:02:05;7.38;;;2.95;;
20669;SDS011;10494;50.868;4.180;2022-07-29T08:04:31;5.70;;;2.88;;
20669;SDS011;10494;50.868;4.180;2022-07-29T08:06:57;6.82;;;2.65;;
20669;SDS011;10494;50.868;4.180;2022-07-29T08:09:24;7.78;;;2.70;;
20669;SDS011;10494;50.868;4.180;2022-07-29T08:11:51;7.10;;;2.30;;
20669;SDS011;10494;50.868;4.180;2022-07-29T08:14:16;5.55;;;2.30;;
20669;SDS011;10494;50.868;4.180;2022-07-29T08:16:42;4.65;;;2.78;;
20669;SDS011;10494;50.868;4.180;2022-07-29T08:19:08;5.70;;;2.70;;
20669;SDS011;10494;50.868;4.180;2022-07-29T08:21:35;5.60;;;1.90;;
20669;SDS011;10494;50.868;4.180;2022-07-29T08:24:00;5.20;;;2.40;;
20669;SDS011;10494;50.868;4.180;2022-07-29T08:26:45;5.53;;;2.55;;
20669;SDS011;10494;50.868;4.180;2022-07-29T08:29:10;6.00;;;2.40;;
20669;SDS011;10494;50.868;4.180;2022-07-29T08:31:36;8.57;;;2.75;;
20669;SDS011;10494;50.868;4.180;2022-07-29T08:34:03;5.57;;;2.13;;
20669;SDS011;10494;50.868;4.180;2022-07-29T08:36:29;6.03;;;2.13;;
20669;SDS011;10494;50.868;4.180;2022-07-29T08:38:55;4.57;;;2.22;;
20669;SDS011;10494;50.868;4.180;2022-07-29T08:41:21;6.32;;;2.20;;
20669;SDS011;10494;50.868;4.180;2022-07-29T08:43:47;7.50;;;2.72;;
20669;SDS011;10494;50.868;4.180;2022-07-29T08:46:14;5.53;;;2.38;;
20669;SDS011;10494;50.868;4.180;2022-07-29T08:48:40;5.72;;;2.13;;
20669;SDS011;10494;50.868;4.180;2022-07-29T08:51:06;6.75;;;1.83;;
20669;SDS011;10494;50.868;4.180;2022-07-29T08:53:33;6.25;;;2.10;;
20669;SDS011;10494;50.868;4.180;2022-07-29T08:55:59;4.75;;;1.98;;
20669;SDS011;10494;50.868;4.180;2022-07-29T08:58:26;6.13;;;2.20;;
20669;SDS011;10494;50.868;4.180;2022-07-29T09:00:56;4.10;;;1.90;;
20669;SDS011;10494;50.868;4.180;2022-07-29T09:03:24;5.20;;;2.08;;
20669;SDS011;10494;50.868;4.180;2022-07-29T09:05:50;5.82;;;2.40;;
20669;SDS011;10494;50.868;4.180;2022-07-29T09:08:17;6.35;;;2.33;;
20669;SDS011;10494;50.868;4.180;2022-07-29T09:10:42;6.88;;;2.88;;
20669;SDS011;10494;50.868;4.180;2022-07-29T09:13:09;7.10;;;2.30;;
20669;SDS011;10494;50.868;4.180;2022-07-29T09:15:34;5.07;;;2.10;;
20669;SDS011;10494;50.868;4.180;2022-07-29T09:18:00;4.75;;;2.10;;
20669;SDS011;10494;50.868;4.180;2022-07-29T09:20:27;4.47;;;2.80;;
20669;SDS011;10494;50.868;4.180;2022-07-29T09:23:13;5.50;;;2.05;;
20669;SDS011;10494;50.868;4.180;2022-07-29T09:25:39;8.65;;;2.65;;
20669;SDS011;10494;50.868;4.180;2022-07-29T09:30:32;5.72;;;2.40;;
20669;SDS011;10494;50.868;4.180;2022-07-29T09:32:58;5.65;;;2.42;;
20669;SDS011;10494;50.868;4.180;2022-07-29T09:35:27;3.30;;;2.08;;
20669;SDS011;10494;50.868;4.180;2022-07-29T09:37:53;4.18;;;2.40;;
20669;SDS011;10494;50.868;4.180;2022-07-29T09:40:21;6.10;;;2.15;;
20669;SDS011;10494;50.868;4.180;2022-07-29T09:42:46;8.25;;;2.22;;
20669;SDS011;10494;50.868;4.180;2022-07-29T09:45:12;5.68;;;2.05;;
20669;SDS011;10494;50.868;4.180;2022-07-29T09:47:50;6.57;;;2.20;;
20669;SDS011;10494;50.868;4.180;2022-07-29T09:50:16;5.25;;;2.33;;
20669;SDS011;10494;50.868;4.180;2022-07-29T09:52:45;8.32;;;2.80;;
20669;SDS011;10494;50.868;4.180;2022-07-29T09:55:15;3.67;;;2.25;;
20669;SDS011;10494;50.868;4.180;2022-07-29T09:57:41;7.45;;;2.78;;
20669;SDS011;10494;50.868;4.180;2022-07-29T10:00:14;6.13;;;3.22;;
20669;SDS011;10494;50.868;4.180;2022-07-29T10:02:42;9.23;;;3.22;;
20669;SDS011;10494;50.868;4.180;2022-07-29T10:05:25;5.35;;;2.88;;
20669;SDS011;10494;50.868;4.180;2022-07-29T10:07:57;5.72;;;3.00;;
20669;SDS011;10494;50.868;4.180;2022-07-29T10:12:53;4.35;;;2.70;;
20669;SDS011;10494;50.868;4.180;2022-07-29T10:15:31;7.57;;;3.65;;
20669;SDS011;10494;50.868;4.180;2022-07-29T10:17:58;6.47;;;2.92;;
20669;SDS011;10494;50.868;4.180;2022-07-29T10:20:25;5.68;;;3.80;;
20669;SDS011;10494;50.868;4.180;2022-07-29T10:22:52;6.32;;;3.35;;
20669;SDS011;10494;50.868;4.180;2022-07-29T10:25:18;10.00;;;3.42;;
20669;SDS011;10494;50.868;4.180;2022-07-29T10:27:45;6.35;;;3.65;;
20669;SDS011;10494;50.868;4.180;2022-07-29T10:30:12;6.78;;;2.70;;
20669;SDS011;10494;50.868;4.180;2022-07-29T10:44:21;5.70;;;3.55;;
20669;SDS011;10494;50.868;4.180;2022-07-29T10:46:48;9.55;;;3.45;;
20669;SDS011;10494;50.868;4.180;2022-07-29T10:49:16;6.35;;;2.47;;
20669;SDS011;10494;50.868;4.180;2022-07-29T10:57:21;10.43;;;3.33;;
20669;SDS011;10494;50.868;4.180;2022-07-29T11:00:26;6.63;;;2.40;;
20669;SDS011;10494;50.868;4.180;2022-07-29T11:05:07;6.10;;;2.85;;
20669;SDS011;10494;50.868;4.180;2022-07-29T11:07:37;4.60;;;2.50;;
20669;SDS011;10494;50.868;4.180;2022-07-29T11:15:08;4.32;;;2.20;;
20669;SDS011;10494;50.868;4.180;2022-07-29T11:20:32;5.45;;;2.13;;
20669;SDS011;10494;50.868;4.180;2022-07-29T11:23:00;10.75;;;2.33;;
20669;SDS011;10494;50.868;4.180;2022-07-29T11:25:25;6.15;;;2.22;;
20669;SDS011;10494;50.868;4.180;2022-07-29T11:27:52;14.57;;;2.65;;
20669;SDS011;10494;50.868;4.180;2022-07-29T11:30:19;8.88;;;2.20;;
20669;SDS011;10494;50.868;4.180;2022-07-29T11:32:45;7.20;;;2.30;;
20669;SDS011;10494;50.868;4.180;2022-07-29T11:35:18;8.38;;;2.45;;
20669;SDS011;10494;50.868;4.180;2022-07-29T11:37:47;5.45;;;2.55;;
20669;SDS011;10494;50.868;4.180;2022-07-29T11:40:32;5.03;;;2.10;;
20669;SDS011;10494;50.868;4.180;2022-07-29T11:42:58;5.75;;;2.22;;
20669;SDS011;10494;50.868;4.180;2022-07-29T11:45:24;7.53;;;2.05;;
20669;SDS011;10494;50.868;4.180;2022-07-29T11:47:55;5.60;;;2.10;;
20669;SDS011;10494;50.868;4.180;2022-07-29T11:50:37;6.72;;;1.90;;
20669;SDS011;10494;50.868;4.180;2022-07-29T11:53:10;5.00;;;2.30;;
20669;SDS011;10494;50.868;4.180;2022-07-29T11:55:37;7.38;;;2.08;;
20669;SDS011;10494;50.868;4.180;2022-07-29T11:58:04;7.78;;;1.73;;
20669;SDS011;10494;50.868;4.180;2022-07-29T12:00:34;6.28;;;3.10;;
20669;SDS011;10494;50.868;4.180;2022-07-29T12:03:06;6.88;;;2.40;;
20669;SDS011;10494;50.868;4.180;2022-07-29T12:08:10;7.80;;;2.00;;
20669;SDS011;10494;50.868;4.180;2022-07-29T12:10:38;4.25;;;2.30;;
20669;SDS011;10494;50.868;4.180;2022-07-29T12:13:04;5.63;;;1.63;;
20669;SDS011;10494;50.868;4.180;2022-07-29T12:15:30;5.93;;;1.90;;
20669;SDS011;10494;50.868;4.180;2022-07-29T12:17:56;7.00;;;2.20;;
20669;SDS011;10494;50.868;4.180;2022-07-29T12:20:23;7.25;;;1.95;;
20669;SDS011;10494;50.868;4.180;2022-07-29T12:22:50;6.82;;;1.98;;
20669;SDS011;10494;50.868;4.180;2022-07-29T12:25:18;9.82;;;1.98;;
20669;SDS011;10494;50.868;4.180;2022-07-29T12:27:44;5.68;;;2.00;;
20669;SDS011;10494;50.868;4.180;2022-07-29T12:30:10;6.97;;;1.65;;
20669;SDS011;10494;50.868;4.180;2022-07-29T12:32:39;7.30;;;2.75;;
20669;SDS011;10494;50.868;4.180;2022-07-29T12:35:12;2.83;;;1.90;;
20669;SDS011;10494;50.868;4.180;2022-07-29T12:37:43;9.43;;;2.00;;
20669;SDS011;10494;50.868;4.180;2022-07-29T12:40:11;5.43;;;2.20;;
20669;SDS011;10494;50.868;4.180;2022-07-29T12:42:39;8.80;;;1.77;;
20669;SDS011;10494;50.868;4.180;2022-07-29T12:45:05;8.00;;;2.03;;
20669;SDS011;10494;50.868;4.180;2022-07-29T12:47:32;8.60;;;2.05;;
20669;SDS011;10494;50.868;4.180;2022-07-29T12:50:11;4.95;;;1.70;;
20669;SDS011;10494;50.868;4.180;2022-07-29T12:52:43;5.82;;;1.58;;
20669;SDS011;10494;50.868;4.180;2022-07-29T12:55:09;9.23;;;1.88;;
20669;SDS011;10494;50.868;4.180;2022-07-29T12:57:48;14.30;;;2.38;;
20669;SDS011;10494;50.868;4.180;2022-07-29T13:00:22;7.43;;;1.60;;
20669;SDS011;10494;50.868;4.180;2022-07-29T13:02:58;4.68;;;1.63;;
20669;SDS011;10494;50.868;4.180;2022-07-29T13:05:38;7.18;;;2.05;;
20669;SDS011;10494;50.868;4.180;2022-07-29T13:08:13;6.45;;;1.90;;
20669;SDS011;10494;50.868;4.180;2022-07-29T13:10:40;5.65;;;2.25;;
20669;SDS011;10494;50.868;4.180;2022-07-29T13:15:34;4.45;;;1.83;;
20669;SDS011;10494;50.868;4.180;2022-07-29T13:20:53;4.90;;;1.63;;
20669;SDS011;10494;50.868;4.180;2022-07-29T13:23:19;3.85;;;1.98;;
20669;SDS011;10494;50.868;4.180;2022-07-29T13:25:45;4.13;;;1.88;;
20669;SDS011;10494;50.868;4.180;2022-07-29T13:28:10;5.25;;;2.65;;
20669;SDS011;10494;50.868;4.180;2022-07-29T13:30:36;5.43;;;2.63;;
20669;SDS011;10494;50.868;4.180;2022-07-29T13:33:05;6.93;;;1.77;;
20669;SDS011;10494;50.868;4.180;2022-07-29T13:35:31;4.88;;;1.90;;
20669;SDS011;10494;50.868;4.180;2022-07-29T13:37:57;7.80;;;2.50;;
20669;SDS011;10494;50.868;4.180;2022-07-29T13:40:23;3.92;;;2.20;;
20669;SDS011;10494;50.868;4.180;2022-07-29T13:42:48;4.82;;;2.35;;
20669;SDS011;10494;50.868;4.180;2022-07-29T13:45:14;6.78;;;1.70;;
20669;SDS011;10494;50.868;4.180;2022-07-29T13:47:39;5.35;;;1.90;;
20669;SDS011;10494;50.868;4.180;2022-07-29T13:50:06;6.50;;;2.03;;
20669;SDS011;10494;50.868;4.180;2022-07-29T13:52:34;5.28;;;1.90;;
20669;SDS011;10494;50.868;4.180;2022-07-29T13:55:00;3.75;;;1.90;;
20669;SDS011;10494;50.868;4.180;2022-07-29T13:57:26;4.75;;;2.08;;
20669;SDS011;10494;50.868;4.180;2022-07-29T13:59:52;3.45;;;1.92;;
20669;SDS011;10494;50.868;4.180;2022-07-29T14:02:18;5.97;;;1.75;;
20669;SDS011;10494;50.868;4.180;2022-07-29T14:04:43;7.68;;;2.03;;
20669;SDS011;10494;50.868;4.180;2022-07-29T14:07:09;3.75;;;1.63;;
20669;SDS011;10494;50.868;4.180;2022-07-29T14:09:35;2.55;;;1.67;;
20669;SDS011;10494;50.868;4.180;2022-07-29T14:12:01;5.72;;;2.15;;
20669;SDS011;10494;50.868;4.180;2022-07-29T14:14:27;6.05;;;2.00;;
20669;SDS011;10494;50.868;4.180;2022-07-29T14:16:53;3.53;;;2.03;;
20669;SDS011;10494;50.868;4.180;2022-07-29T14:19:19;3.42;;;1.90;;
20669;SDS011;10494;50.868;4.180;2022-07-29T14:21:45;6.40;;;2.25;;
20669;SDS011;10494;50.868;4.180;2022-07-29T14:24:11;7.85;;;1.75;;
20669;SDS011;10494;50.868;4.180;2022-07-29T14:26:36;9.48;;;1.88;;
20669;SDS011;10494;50.868;4.180;2022-07-29T14:29:02;7.30;;;2.10;;
20669;SDS011;10494;50.868;4.180;2022-07-29T14:31:27;6.05;;;2.13;;
20669;SDS011;10494;50.868;4.180;2022-07-29T14:33:53;4.00;;;1.73;;
20669;SDS011;10494;50.868;4.180;2022-07-29T14:36:19;4.63;;;2.25;;
20669;SDS011;10494;50.868;4.180;2022-07-29T14:38:44;8.52;;;2.28;;
20669;SDS011;10494;50.868;4.180;2022-07-29T14:41:10;3.85;;;1.63;;
20669;SDS011;10494;50.868;4.180;2022-07-29T14:43:36;3.65;;;1.65;;
20669;SDS011;10494;50.868;4.180;2022-07-29T14:46:02;5.00;;;2.45;;
20669;SDS011;10494;50.868;4.180;2022-07-29T14:48:27;3.65;;;2.40;;
20669;SDS011;10494;50.868;4.180;2022-07-29T14:50:53;9.90;;;2.70;;
20669;SDS011;10494;50.868;4.180;2022-07-29T14:53:20;7.43;;;2.95;;
20669;SDS011;10494;50.868;4.180;2022-07-29T14:55:47;5.65;;;3.03;;
20669;SDS011;10494;50.868;4.180;2022-07-29T14:58:12;5.28;;;2.40;;
20669;SDS011;10494;50.868;4.180;2022-07-29T15:00:38;8.75;;;2.75;;
20669;SDS011;10494;50.868;4.180;2022-07-29T15:03:04;10.05;;;3.20;;
20669;SDS011;10494;50.868;4.180;2022-07-29T15:05:30;6.68;;;3.00;;
20669;SDS011;10494;50.868;4.180;2022-07-29T15:07:56;6.00;;;2.83;;
20669;SDS011;10494;50.868;4.180;2022-07-29T15:10:23;4.97;;;3.20;;
20669;SDS011;10494;50.868;4.180;2022-07-29T15:12:51;7.28;;;2.85;;
20669;SDS011;10494;50.868;4.180;2022-07-29T15:15:16;8.52;;;2.75;;
20669;SDS011;10494;50.868;4.180;2022-07-29T15:17:42;6.55;;;3.33;;
20669;SDS011;10494;50.868;4.180;2022-07-29T15:20:08;4.32;;;3.10;;
20669;SDS011;10494;50.868;4.180;2022-07-29T15:22:34;6.65;;;3.03;;
20669;SDS011;10494;50.868;4.180;2022-07-29T15:24:59;7.63;;;3.20;;
20669;SDS011;10494;50.868;4.180;2022-07-29T15:27:25;6.00;;;3.50;;
20669;SDS011;10494;50.868;4.180;2022-07-29T15:29:51;8.13;;;3.10;;
20669;SDS011;10494;50.868;4.180;2022-07-29T15:32:16;7.20;;;2.95;;
20669;SDS011;10494;50.868;4.180;2022-07-29T15:34:42;7.68;;;3.10;;
20669;SDS011;10494;50.868;4.180;2022-07-29T15:37:07;6.72;;;3.05;;
20669;SDS011;10494;50.868;4.180;2022-07-29T15:39:34;5.10;;;3.00;;
20669;SDS011;10494;50.868;4.180;2022-07-29T15:42:00;4.35;;;2.45;;